Time;durP1;ratioP1;P1;durP2;ratioP2;P2;SDS_P1;SDS_P2;PMS_P1;PMS_P2;Temp;Humidity;BMP_temperature;BMP_pressure;BME280_temperature;BME280_humidity;BME280_pressure;Samples;Min_cycle;Max_cycle;Signal;HPM_P1;HPM_P2
2021/12/24 00:00:19;;;;;;;43.67;19.20;;;;;;;;;;5089866;28;20085;-81
2021/12/24 00:02:45;;;;;;;41.30;21.98;;;;;;;;;;5086602;28;20027;-81
2021/12/24 00:05:13;;;;;;;44.25;20.80;;;;;;;;;;5090207;28;20392;-80
2021/12/24 00:07:39;;;;;;;49.60;24.45;;;;;;;;;;5087822;28;20039;-81
2021/12/24 00:10:07;;;;;;;44.58;23.15;;;;;;;;;;5086986;28;20346;-81
2021/12/24 00:12:35;;;;;;;37.28;19.48;;;;;;;;;;5085896;28;20495;-81
2021/12/24 00:15:15;;;;;;;44.03;18.88;;;;;;;;;;5081315;28;20020;-80
2021/12/24 00:17:40;;;;;;;35.30;17.63;;;;;;;;;;5091021;28;20028;-80
2021/12/24 00:21:03;;;;;;;35.25;19.00;;;;;;;;;;5089814;28;20047;-83
2021/12/24 00:36:55;;;;;;;29.05;15.50;;;;;;;;;;5087250;28;20023;-84
2021/12/24 00:39:21;;;;;;;23.85;13.25;;;;;;;;;;5088376;28;20036;-81
2021/12/24 00:41:46;;;;;;;22.50;13.15;;;;;;;;;;5090185;28;20035;-83
2021/12/24 00:44:12;;;;;;;24.02;12.77;;;;;;;;;;5089721;28;20069;-82
2021/12/24 00:46:37;;;;;;;25.33;12.90;;;;;;;;;;5089237;28;20035;-83
2021/12/24 00:49:04;;;;;;;23.13;11.88;;;;;;;;;;5089699;28;20391;-83
2021/12/24 00:51:55;;;;;;;19.80;10.25;;;;;;;;;;5085635;28;20031;-83
2021/12/24 00:57:03;;;;;;;21.15;9.13;;;;;;;;;;5086617;28;20031;-82
2021/12/24 00:59:29;;;;;;;16.88;10.18;;;;;;;;;;5089874;28;20032;-82
2021/12/24 01:01:54;;;;;;;15.77;8.40;;;;;;;;;;5090256;28;20020;-82
2021/12/24 01:04:20;;;;;;;12.02;5.93;;;;;;;;;;5090687;28;20038;-80
2021/12/24 01:06:45;;;;;;;14.00;7.68;;;;;;;;;;5089842;28;20032;-82
2021/12/24 01:09:11;;;;;;;19.42;7.65;;;;;;;;;;5093005;28;20476;-82
2021/12/24 01:11:39;;;;;;;13.63;7.60;;;;;;;;;;5090137;28;20028;-82
2021/12/24 01:14:05;;;;;;;14.30;8.52;;;;;;;;;;5085347;28;20035;-82
2021/12/24 01:23:53;;;;;;;10.30;6.90;;;;;;;;;;5093531;28;20049;-82
2021/12/24 01:27:03;;;;;;;8.50;5.85;;;;;;;;;;5092917;28;20035;-82
2021/12/24 01:40:20;;;;;;;10.77;6.47;;;;;;;;;;5088943;28;20047;-82
2021/12/24 01:42:44;;;;;;;11.35;5.65;;;;;;;;;;5091763;28;20035;-81
2021/12/24 01:45:26;;;;;;;15.68;6.40;;;;;;;;;;5093984;28;20035;-81
2021/12/24 01:47:56;;;;;;;9.77;3.78;;;;;;;;;;5090839;28;20028;-81
2021/12/24 01:50:23;;;;;;;6.13;4.95;;;;;;;;;;5094087;28;20103;-83
2021/12/24 01:52:50;;;;;;;11.48;4.72;;;;;;;;;;5095000;28;20165;-83
2021/12/24 01:55:18;;;;;;;11.45;5.55;;;;;;;;;;5093054;28;20012;-85
2021/12/24 01:57:44;;;;;;;10.38;5.20;;;;;;;;;;5094722;28;20039;-84
2021/12/24 02:00:25;;;;;;;13.52;6.95;;;;;;;;;;5094261;28;20024;-82
2021/12/24 02:02:51;;;;;;;15.00;7.38;;;;;;;;;;5092673;28;20138;-82
2021/12/24 02:05:17;;;;;;;14.75;7.38;;;;;;;;;;5092150;28;20058;-82
2021/12/24 02:07:43;;;;;;;11.07;7.03;;;;;;;;;;5094175;28;20028;-82
2021/12/24 02:10:12;;;;;;;18.42;9.52;;;;;;;;;;5090710;28;20030;-82
2021/12/24 02:12:38;;;;;;;11.82;6.65;;;;;;;;;;5094229;28;20020;-82
2021/12/24 02:15:08;;;;;;;10.73;7.13;;;;;;;;;;5093561;28;20020;-82
2021/12/24 02:18:23;;;;;;;11.70;5.75;;;;;;;;;;5093022;28;20059;-82
2021/12/24 02:28:41;;;;;;;9.38;4.65;;;;;;;;;;5085647;28;20081;-82
2021/12/24 02:31:14;;;;;;;10.15;4.90;;;;;;;;;;5093036;28;20027;-81
2021/12/24 02:33:39;;;;;;;7.13;4.75;;;;;;;;;;5089035;28;20092;-82
2021/12/24 02:36:05;;;;;;;10.45;5.93;;;;;;;;;;5090824;28;20111;-82
2021/12/24 02:38:32;;;;;;;8.80;4.45;;;;;;;;;;5089991;28;20100;-80
2021/12/24 02:40:58;;;;;;;8.88;4.93;;;;;;;;;;5087878;28;20024;-81
2021/12/24 02:43:24;;;;;;;9.63;5.68;;;;;;;;;;5092579;28;20036;-82
2021/12/24 02:45:54;;;;;;;9.55;4.50;;;;;;;;;;5093127;28;20024;-82
2021/12/24 02:56:18;;;;;;;9.48;5.60;;;;;;;;;;5089723;28;20073;-83
2021/12/24 02:58:46;;;;;;;8.95;4.78;;;;;;;;;;5092186;28;20024;-83
2021/12/24 03:01:15;;;;;;;13.07;6.00;;;;;;;;;;5091779;28;20344;-83
2021/12/24 03:03:42;;;;;;;9.35;5.25;;;;;;;;;;5087861;28;20387;-83
2021/12/24 03:06:08;;;;;;;11.05;6.22;;;;;;;;;;5093205;28;20032;-82
2021/12/24 03:08:34;;;;;;;9.48;6.55;;;;;;;;;;5092683;28;20373;-82
2021/12/24 03:11:00;;;;;;;12.05;6.97;;;;;;;;;;5092815;28;20054;-82
2021/12/24 03:13:27;;;;;;;10.55;4.65;;;;;;;;;;5091399;28;20124;-83
2021/12/24 03:15:56;;;;;;;8.25;4.25;;;;;;;;;;5089276;28;20024;-81
2021/12/24 03:18:26;;;;;;;15.23;5.50;;;;;;;;;;5091028;28;20050;-80
2021/12/24 03:23:39;;;;;;;8.73;3.67;;;;;;;;;;5089413;28;20807;-81
2021/12/24 03:26:06;;;;;;;10.48;5.55;;;;;;;;;;5089059;28;20036;-80
2021/12/24 03:28:32;;;;;;;11.65;4.60;;;;;;;;;;5091980;28;20411;-80
2021/12/24 03:30:59;;;;;;;9.85;5.78;;;;;;;;;;5091297;28;20024;-81
2021/12/24 03:33:25;;;;;;;7.80;5.32;;;;;;;;;;5088125;28;20031;-80
2021/12/24 03:35:51;;;;;;;9.68;5.05;;;;;;;;;;5088896;28;20052;-80
2021/12/24 03:38:16;;;;;;;13.93;5.93;;;;;;;;;;5091792;28;20055;-81
2021/12/24 03:40:44;;;;;;;9.80;6.50;;;;;;;;;;5092256;28;20447;-82
2021/12/24 03:43:10;;;;;;;9.82;5.15;;;;;;;;;;5090639;28;20093;-82
2021/12/24 03:45:56;;;;;;;9.45;5.28;;;;;;;;;;5087192;28;20058;-80
2021/12/24 03:48:39;;;;;;;9.48;5.68;;;;;;;;;;5089262;28;20080;-83
2021/12/24 03:56:25;;;;;;;9.70;5.60;;;;;;;;;;5082031;28;20109;-80
2021/12/24 03:58:50;;;;;;;11.93;5.70;;;;;;;;;;5090716;28;20100;-82
2021/12/24 04:01:16;;;;;;;7.97;4.63;;;;;;;;;;5089782;28;20032;-81
2021/12/24 04:03:42;;;;;;;9.95;6.18;;;;;;;;;;5090525;28;20028;-82
2021/12/24 04:06:07;;;;;;;10.25;6.38;;;;;;;;;;5089257;28;20176;-80
2021/12/24 04:08:33;;;;;;;8.75;5.50;;;;;;;;;;5086083;28;20162;-80
2021/12/24 04:10:58;;;;;;;9.75;5.97;;;;;;;;;;5090034;28;20043;-81
2021/12/24 04:13:24;;;;;;;14.18;7.20;;;;;;;;;;5089834;28;20059;-81
2021/12/24 04:15:49;;;;;;;11.80;6.18;;;;;;;;;;5086468;28;20026;-81
2021/12/24 04:18:37;;;;;;;11.57;5.80;;;;;;;;;;5089465;28;20099;-82
2021/12/24 04:26:32;;;;;;;13.82;6.97;;;;;;;;;;5084556;28;20054;-80
2021/12/24 04:28:58;;;;;;;15.63;8.55;;;;;;;;;;5091102;28;20517;-86
2021/12/24 04:31:31;;;;;;;12.18;6.43;;;;;;;;;;5091199;28;20028;-80
2021/12/24 04:34:00;;;;;;;8.18;5.07;;;;;;;;;;5088354;28;20530;-79
2021/12/24 05:03:06;;;;;;;16.75;9.93;;;;;;;;;;5089731;28;20491;-81
2021/12/24 05:05:51;;;;;;;10.93;7.18;;;;;;;;;;5091486;28;20024;-81
2021/12/24 05:08:23;;;;;;;24.20;10.90;;;;;;;;;;5088532;28;20109;-80
2021/12/24 05:10:51;;;;;;;16.38;9.35;;;;;;;;;;5092361;28;20023;-81
2021/12/24 05:13:18;;;;;;;12.43;7.60;;;;;;;;;;5093188;28;21086;-83
2021/12/24 05:15:48;;;;;;;16.17;7.72;;;;;;;;;;5092111;28;20380;-83
2021/12/24 05:23:26;;;;;;;19.45;10.63;;;;;;;;;;5093106;28;20038;-81
2021/12/24 05:25:52;;;;;;;13.65;7.72;;;;;;;;;;5092427;28;20040;-80
2021/12/24 05:28:19;;;;;;;17.95;9.65;;;;;;;;;;5092593;28;20032;-81
2021/12/24 05:30:44;;;;;;;15.20;8.85;;;;;;;;;;5094023;28;20108;-80
2021/12/24 05:33:15;;;;;;;13.90;8.07;;;;;;;;;;5094955;28;20043;-81
2021/12/24 05:35:41;;;;;;;18.98;9.07;;;;;;;;;;5093191;28;20055;-84
2021/12/24 05:38:07;;;;;;;16.30;9.43;;;;;;;;;;5090670;28;20032;-83
2021/12/24 05:40:33;;;;;;;10.48;6.80;;;;;;;;;;5094231;28;20077;-79
2021/12/24 05:42:58;;;;;;;12.25;7.88;;;;;;;;;;5094305;28;20456;-81
2021/12/24 05:45:24;;;;;;;16.50;8.73;;;;;;;;;;5090371;28;20448;-84
2021/12/24 05:47:52;;;;;;;15.88;8.70;;;;;;;;;;5092499;28;20111;-80
2021/12/24 05:50:18;;;;;;;19.40;8.07;;;;;;;;;;5091605;28;20452;-81
2021/12/24 05:52:44;;;;;;;16.40;9.05;;;;;;;;;;5090994;28;20058;-81
2021/12/24 05:55:10;;;;;;;17.15;9.07;;;;;;;;;;5089566;28;20052;-83
2021/12/24 05:57:35;;;;;;;15.85;9.63;;;;;;;;;;5093124;28;20016;-83
2021/12/24 06:00:05;;;;;;;16.95;9.77;;;;;;;;;;5090807;28;20028;-81
2021/12/24 06:02:32;;;;;;;17.25;9.15;;;;;;;;;;5091233;28;20034;-82
2021/12/24 06:04:57;;;;;;;19.70;9.32;;;;;;;;;;5091731;28;20444;-80
2021/12/24 06:07:23;;;;;;;16.40;7.28;;;;;;;;;;5091601;28;20118;-82
2021/12/24 06:09:48;;;;;;;14.93;7.38;;;;;;;;;;5092400;28;20114;-83
2021/12/24 06:12:14;;;;;;;15.38;7.90;;;;;;;;;;5092767;28;20430;-80
2021/12/24 06:14:41;;;;;;;12.35;6.65;;;;;;;;;;5089532;28;20491;-81
2021/12/24 06:17:13;;;;;;;12.25;6.88;;;;;;;;;;5090896;28;20051;-82
2021/12/24 06:19:39;;;;;;;11.32;6.50;;;;;;;;;;5093771;28;20031;-79
2021/12/24 06:22:04;;;;;;;16.23;7.50;;;;;;;;;;5092193;28;20039;-81
2021/12/24 06:24:30;;;;;;;12.68;7.28;;;;;;;;;;5090800;28;20087;-82
2021/12/24 06:26:56;;;;;;;15.98;6.57;;;;;;;;;;5093253;28;20032;-81
2021/12/24 06:29:22;;;;;;;12.65;7.97;;;;;;;;;;5089284;28;20039;-82
2021/12/24 06:31:49;;;;;;;24.48;11.40;;;;;;;;;;5090878;28;20399;-82
2021/12/24 06:34:14;;;;;;;14.57;8.05;;;;;;;;;;5091032;28;20059;-79
2021/12/24 06:36:43;;;;;;;15.98;9.38;;;;;;;;;;5092806;28;20085;-82
2021/12/24 06:39:09;;;;;;;17.13;8.80;;;;;;;;;;5092879;28;20031;-79
2021/12/24 06:41:34;;;;;;;17.70;8.80;;;;;;;;;;5084792;28;20032;-80
2021/12/24 06:44:01;;;;;;;18.33;10.02;;;;;;;;;;5088824;28;20024;-80
2021/12/24 06:46:27;;;;;;;20.42;9.45;;;;;;;;;;5091026;28;20034;-80
2021/12/24 06:48:56;;;;;;;17.85;9.05;;;;;;;;;;5091971;28;20032;-81
2021/12/24 06:51:22;;;;;;;17.40;10.07;;;;;;;;;;5087671;28;20032;-80
2021/12/24 06:53:48;;;;;;;19.92;10.63;;;;;;;;;;5091251;28;20163;-79
2021/12/24 06:56:14;;;;;;;20.20;11.43;;;;;;;;;;5091157;28;20408;-81
2021/12/24 06:58:39;;;;;;;18.00;11.13;;;;;;;;;;5087702;28;20391;-80
2021/12/24 07:01:05;;;;;;;16.95;10.25;;;;;;;;;;5089703;28;20028;-81
2021/12/24 07:03:30;;;;;;;19.23;10.38;;;;;;;;;;5090563;28;20019;-79
2021/12/24 07:05:56;;;;;;;17.67;11.30;;;;;;;;;;5090444;28;20020;-80
2021/12/24 07:08:21;;;;;;;19.30;10.38;;;;;;;;;;5090556;28;20039;-81
2021/12/24 07:10:47;;;;;;;20.20;11.50;;;;;;;;;;5090218;28;20047;-80
2021/12/24 07:13:13;;;;;;;19.35;10.77;;;;;;;;;;5087827;28;20399;-81
2021/12/24 07:15:39;;;;;;;16.13;9.45;;;;;;;;;;5090617;28;20031;-79
2021/12/24 07:18:04;;;;;;;15.63;9.70;;;;;;;;;;5081550;28;20398;-81
2021/12/24 07:20:30;;;;;;;21.50;10.80;;;;;;;;;;5088389;28;20236;-81
2021/12/24 07:22:55;;;;;;;18.52;11.75;;;;;;;;;;5086985;28;20035;-78
2021/12/24 07:25:21;;;;;;;24.23;10.63;;;;;;;;;;5081736;28;20063;-79
2021/12/24 07:27:47;;;;;;;16.48;9.10;;;;;;;;;;5091643;28;20107;-80
2021/12/24 07:30:13;;;;;;;19.20;11.23;;;;;;;;;;5085030;28;20384;-79
2021/12/24 07:32:40;;;;;;;26.33;12.50;;;;;;;;;;5088256;28;20032;-80
2021/12/24 07:35:06;;;;;;;21.10;10.77;;;;;;;;;;5082156;28;20030;-80
2021/12/24 07:37:32;;;;;;;20.50;11.07;;;;;;;;;;5082004;28;20024;-79
2021/12/24 07:39:58;;;;;;;20.42;10.70;;;;;;;;;;5090630;28;20043;-80
2021/12/24 07:42:25;;;;;;;24.50;11.52;;;;;;;;;;5090629;28;20023;-80
2021/12/24 07:44:51;;;;;;;20.88;10.73;;;;;;;;;;5089600;28;20024;-79
2021/12/24 07:47:27;;;;;;;21.33;11.38;;;;;;;;;;5089720;28;20031;-82
2021/12/24 07:50:00;;;;;;;25.10;11.38;;;;;;;;;;5085199;28;20031;-81
2021/12/24 07:52:25;;;;;;;17.83;10.65;;;;;;;;;;5084315;28;20032;-80
2021/12/24 07:54:54;;;;;;;16.65;10.55;;;;;;;;;;5085805;28;20385;-80
2021/12/24 07:57:20;;;;;;;23.20;10.10;;;;;;;;;;5091228;28;20058;-81
2021/12/24 07:59:46;;;;;;;18.15;10.93;;;;;;;;;;5091886;28;20081;-81
2021/12/24 08:02:15;;;;;;;21.25;10.95;;;;;;;;;;5088315;28;20028;-81
2021/12/24 08:04:43;;;;;;;15.73;9.98;;;;;;;;;;5089406;28;20111;-79
2021/12/24 08:07:09;;;;;;;19.95;10.77;;;;;;;;;;5090523;28;20043;-80
2021/12/24 08:09:37;;;;;;;21.60;10.70;;;;;;;;;;5090223;28;20024;-81
2021/12/24 08:12:05;;;;;;;22.10;11.32;;;;;;;;;;5088741;28;20023;-80
2021/12/24 08:14:30;;;;;;;22.75;11.50;;;;;;;;;;5088127;28;20111;-80
2021/12/24 08:16:56;;;;;;;26.23;11.52;;;;;;;;;;5085184;28;20127;-79
2021/12/24 08:19:21;;;;;;;45.60;21.92;;;;;;;;;;5088792;28;20028;-80
2021/12/24 08:21:46;;;;;;;54.10;28.08;;;;;;;;;;5086764;28;20115;-80
2021/12/24 08:24:13;;;;;;;34.88;21.20;;;;;;;;;;5088145;28;20040;-79
2021/12/24 08:26:39;;;;;;;24.70;14.30;;;;;;;;;;5088308;28;20127;-81
2021/12/24 08:29:04;;;;;;;17.50;10.70;;;;;;;;;;5086280;28;20111;-80
2021/12/24 08:31:31;;;;;;;21.25;10.95;;;;;;;;;;5088886;28;20043;-80
2021/12/24 08:33:57;;;;;;;15.30;9.80;;;;;;;;;;5088648;28;20107;-80
2021/12/24 08:36:23;;;;;;;17.80;11.60;;;;;;;;;;5089093;28;20103;-79
2021/12/24 08:38:48;;;;;;;31.60;15.82;;;;;;;;;;5088937;28;20060;-81
2021/12/24 08:41:14;;;;;;;48.05;21.33;;;;;;;;;;5089267;28;20031;-80
2021/12/24 08:43:39;;;;;;;48.08;25.08;;;;;;;;;;5084461;28;20081;-79
2021/12/24 08:46:05;;;;;;;49.28;20.20;;;;;;;;;;5087796;28;20081;-81
2021/12/24 08:48:30;;;;;;;52.60;23.13;;;;;;;;;;5085724;28;20036;-79
2021/12/24 08:50:56;;;;;;;40.15;20.50;;;;;;;;;;5089217;28;20135;-79
2021/12/24 08:53:23;;;;;;;35.90;20.80;;;;;;;;;;5088987;28;20028;-80
2021/12/24 08:55:50;;;;;;;69.75;32.75;;;;;;;;;;5087545;28;20081;-81
2021/12/24 08:58:16;;;;;;;57.00;27.33;;;;;;;;;;5084906;28;20032;-79
2021/12/24 09:00:41;;;;;;;49.90;27.27;;;;;;;;;;5089544;28;20035;-79
2021/12/24 09:03:07;;;;;;;32.63;17.33;;;;;;;;;;5089970;28;20028;-79
2021/12/24 09:05:33;;;;;;;31.23;15.90;;;;;;;;;;5089325;28;20116;-79
2021/12/24 09:07:58;;;;;;;34.13;16.23;;;;;;;;;;5088897;28;20492;-79
2021/12/24 09:10:24;;;;;;;32.38;16.45;;;;;;;;;;5089314;28;20020;-80
2021/12/24 09:13:29;;;;;;;35.28;16.15;;;;;;;;;;5089617;28;20031;-82
2021/12/24 09:15:55;;;;;;;32.92;17.73;;;;;;;;;;5088166;28;20490;-80
2021/12/24 09:18:21;;;;;;;28.60;15.85;;;;;;;;;;5087953;28;20058;-79
2021/12/24 09:20:48;;;;;;;32.55;15.80;;;;;;;;;;5088983;28;20051;-79
2021/12/24 09:23:14;;;;;;;35.67;16.40;;;;;;;;;;5090445;28;20372;-81
2021/12/24 09:25:40;;;;;;;32.38;17.83;;;;;;;;;;5089256;28;20052;-79
2021/12/24 09:28:07;;;;;;;33.00;17.48;;;;;;;;;;5085940;28;20024;-79
2021/12/24 09:30:33;;;;;;;32.80;16.52;;;;;;;;;;5089132;28;20117;-80
2021/12/24 09:32:59;;;;;;;31.38;18.67;;;;;;;;;;5088195;28;20028;-80
2021/12/24 09:35:26;;;;;;;56.80;28.73;;;;;;;;;;5090323;28;20560;-81
2021/12/24 09:37:53;;;;;;;23.25;12.98;;;;;;;;;;5125522;27;20040;-80
2021/12/24 09:40:20;;;;;;;22.80;12.35;;;;;;;;;;5092471;28;20036;-79
2021/12/24 09:42:47;;;;;;;19.20;11.65;;;;;;;;;;5094010;28;20019;-79
2021/12/24 09:45:14;;;;;;;20.45;11.85;;;;;;;;;;5088329;28;20064;-80
2021/12/24 09:47:41;;;;;;;20.02;12.15;;;;;;;;;;5087555;28;20383;-80
2021/12/24 09:50:09;;;;;;;20.17;10.98;;;;;;;;;;5090895;28;20497;-79
2021/12/24 09:52:38;;;;;;;23.17;11.38;;;;;;;;;;5088073;28;20376;-80
2021/12/24 09:55:14;;;;;;;18.40;11.23;;;;;;;;;;5086291;28;20040;-80
2021/12/24 09:57:42;;;;;;;23.60;10.73;;;;;;;;;;5093700;28;20503;-80
2021/12/24 10:00:12;;;;;;;19.88;10.30;;;;;;;;;;5093027;28;20074;-80
2021/12/24 10:02:43;;;;;;;;;;;;;;;;;;5087765;28;20024;-80
2021/12/24 10:05:26;;;;;;;20.15;11.43;;;;;;;;;;5087853;28;19969;-83
2021/12/24 10:07:58;;;;;;;18.33;10.90;;;;;;;;;;5084444;28;20024;-81
2021/12/24 10:10:25;;;;;;;20.80;11.35;;;;;;;;;;5088966;28;20039;-81
2021/12/24 10:12:52;;;;;;;21.35;11.20;;;;;;;;;;5093085;28;20059;-79
2021/12/24 10:15:18;;;;;;;20.70;11.35;;;;;;;;;;5091685;28;20020;-81
2021/12/24 10:17:45;;;;;;;23.20;11.45;;;;;;;;;;5092868;28;20036;-81
2021/12/24 10:20:16;;;;;;;22.52;11.52;;;;;;;;;;5090788;28;20057;-81
2021/12/24 10:22:54;;;;;;;19.20;11.73;;;;;;;;;;5091983;28;20130;-81
2021/12/24 10:25:28;;;;;;;24.38;12.15;;;;;;;;;;5091561;28;20047;-81
2021/12/24 10:27:53;;;;;;;18.17;9.80;;;;;;;;;;5091828;28;20058;-81
2021/12/24 10:30:32;;;;;;;18.65;9.73;;;;;;;;;;5091939;28;20032;-80
2021/12/24 10:33:08;;;;;;;17.25;10.00;;;;;;;;;;5091155;28;20024;-79
2021/12/24 10:35:34;;;;;;;19.13;11.77;;;;;;;;;;5091263;28;20099;-81
2021/12/24 10:38:14;;;;;;;22.92;11.90;;;;;;;;;;5091178;28;20111;-81
2021/12/24 10:41:06;;;;;;;23.27;13.18;;;;;;;;;;5088805;28;20073;-83
2021/12/24 10:43:35;;;;;;;21.52;13.05;;;;;;;;;;5096002;28;20036;-81
2021/12/24 10:46:16;;;;;;;21.80;12.35;;;;;;;;;;5088548;28;20081;-82
2021/12/24 10:49:08;;;;;;;26.80;14.95;;;;;;;;;;5091035;28;20369;-81
2021/12/24 10:51:59;;;;;;;29.48;12.93;;;;;;;;;;5090069;28;20161;-82
2021/12/24 10:54:24;;;;;;;24.58;12.98;;;;;;;;;;5092296;28;20118;-80
2021/12/24 10:56:50;;;;;;;26.70;12.65;;;;;;;;;;5091697;28;20115;-81
2021/12/24 10:59:18;;;;;;;19.88;11.10;;;;;;;;;;5091885;28;20028;-82
2021/12/24 11:01:43;;;;;;;24.17;13.63;;;;;;;;;;5090849;28;20024;-82
2021/12/24 11:04:09;;;;;;;20.65;12.27;;;;;;;;;;5092235;28;20490;-82
2021/12/24 11:06:34;;;;;;;26.95;14.23;;;;;;;;;;5092037;28;20464;-81
2021/12/24 11:09:00;;;;;;;31.92;14.45;;;;;;;;;;5091797;28;20085;-81
2021/12/24 11:11:35;;;;;;;46.97;19.15;;;;;;;;;;5092450;28;20080;-81
2021/12/24 11:14:01;;;;;;;3.67;2.30;;;;;;;;;;5081994;28;20146;-81
2021/12/24 11:16:26;;;;;;;3.47;2.28;;;;;;;;;;5084551;28;20100;-82
2021/12/24 11:19:01;;;;;;;5.00;2.45;;;;;;;;;;5088503;28;20103;-80
2021/12/24 11:21:28;;;;;;;6.93;3.30;;;;;;;;;;5085289;28;20028;-81
2021/12/24 11:23:54;;;;;;;4.07;2.65;;;;;;;;;;5089474;28;20373;-82
2021/12/24 11:26:23;;;;;;;5.15;1.90;;;;;;;;;;5089871;28;20032;-80
2021/12/24 11:28:49;;;;;;;3.72;1.98;;;;;;;;;;5091310;28;20095;-79
2021/12/24 11:31:21;;;;;;;2.70;1.73;;;;;;;;;;5081345;28;20422;-80
2021/12/24 11:33:48;;;;;;;4.20;2.67;;;;;;;;;;5091557;28;20149;-80
2021/12/24 11:36:16;;;;;;;5.05;3.05;;;;;;;;;;5119147;27;20017;-80
2021/12/24 11:38:47;;;;;;;5.55;2.72;;;;;;;;;;5088141;28;20023;-80
2021/12/24 11:41:15;;;;;;;4.72;2.20;;;;;;;;;;5090752;28;20031;-81
2021/12/24 11:43:45;;;;;;;2.00;1.40;;;;;;;;;;5091237;28;20039;-79
2021/12/24 11:46:12;;;;;;;4.75;2.60;;;;;;;;;;5085947;28;20037;-79
2021/12/24 11:48:38;;;;;;;7.63;3.03;;;;;;;;;;5089681;28;20036;-80
2021/12/24 11:51:13;;;;;;;4.57;2.40;;;;;;;;;;5085022;28;20031;-80
2021/12/24 11:53:39;;;;;;;5.47;2.60;;;;;;;;;;5089102;28;20544;-79
2021/12/24 11:56:07;;;;;;;5.80;3.00;;;;;;;;;;5089189;28;20028;-79
2021/12/24 11:58:47;;;;;;;4.25;2.63;;;;;;;;;;5089017;28;20027;-79
2021/12/24 12:01:16;;;;;;;3.33;2.40;;;;;;;;;;5088201;28;20043;-80
2021/12/24 12:03:49;;;;;;;3.40;2.40;;;;;;;;;;5089162;28;20032;-79
2021/12/24 12:06:24;;;;;;;3.92;1.85;;;;;;;;;;5085193;28;20024;-79
2021/12/24 12:09:01;;;;;;;2.83;1.92;;;;;;;;;;5086390;28;20024;-80
2021/12/24 12:11:28;;;;;;;3.70;2.10;;;;;;;;;;5087074;28;20039;-78
2021/12/24 12:14:05;;;;;;;6.40;3.15;;;;;;;;;;5090142;28;20027;-79
2021/12/24 12:16:42;;;;;;;3.83;2.33;;;;;;;;;;5089759;28;20535;-81
2021/12/24 12:19:23;;;;;;;3.30;2.17;;;;;;;;;;5088985;28;20487;-80
2021/12/24 12:22:29;;;;;;;3.60;1.95;;;;;;;;;;5086886;28;20035;-78
2021/12/24 12:25:00;;;;;;;3.22;1.92;;;;;;;;;;5090027;28;20044;-80
2021/12/24 12:27:32;;;;;;;3.97;2.38;;;;;;;;;;5086743;28;20110;-80
2021/12/24 12:29:58;;;;;;;3.40;2.05;;;;;;;;;;5084443;28;20035;-80
2021/12/24 12:32:27;;;;;;;4.93;3.10;;;;;;;;;;5089860;28;20028;-80
2021/12/24 12:34:57;;;;;;;2.95;1.90;;;;;;;;;;5089809;28;20389;-79
2021/12/24 12:37:28;;;;;;;;;;;;;;;;;;5087238;28;20165;-79
2021/12/24 12:40:03;;;;;;;5.28;2.40;;;;;;;;;;5088345;28;19918;-78
2021/12/24 12:42:54;;;;;;;4.60;3.08;;;;;;;;;;5088821;28;20032;-79
2021/12/24 12:45:32;;;;;;;4.28;2.28;;;;;;;;;;5088380;28;20024;-78
2021/12/24 12:48:00;;;;;;;8.50;3.92;;;;;;;;;;5089224;28;20028;-79
2021/12/24 12:50:28;;;;;;;17.67;9.30;;;;;;;;;;5089842;28;20085;-79
2021/12/24 12:53:25;;;;;;;9.60;5.28;;;;;;;;;;5087443;28;20470;-81
2021/12/24 12:56:18;;;;;;;9.98;4.80;;;;;;;;;;5086804;28;20082;-80
2021/12/24 12:59:06;;;;;;;8.60;4.72;;;;;;;;;;5087534;28;20356;-81
2021/12/24 13:01:47;;;;;;;9.45;5.50;;;;;;;;;;5083674;28;20032;-78
2021/12/24 13:04:14;;;;;;;9.07;6.07;;;;;;;;;;5087114;28;20036;-79
2021/12/24 13:06:41;;;;;;;16.85;9.88;;;;;;;;;;5088142;28;20360;-80
2021/12/24 13:09:09;;;;;;;30.92;17.30;;;;;;;;;;5092828;28;20040;-82
2021/12/24 13:11:49;;;;;;;16.85;9.60;;;;;;;;;;5089562;28;20079;-79
2021/12/24 13:14:15;;;;;;;;;;;;;;;;;;5092234;28;20115;-81
2021/12/24 13:17:04;;;;;;;12.48;6.50;;;;;;;;;;5127384;27;20006;-83
2021/12/24 13:22:31;;;;;;;15.75;9.85;;;;;;;;;;5091321;28;20808;-80
2021/12/24 13:25:13;;;;;;;9.15;5.43;;;;;;;;;;5090406;28;20032;-82
2021/12/24 13:27:51;;;;;;;6.57;3.83;;;;;;;;;;5089750;28;20471;-79
2021/12/24 13:30:20;;;;;;;16.25;8.32;;;;;;;;;;5092586;28;20024;-81
2021/12/24 13:32:53;;;;;;;9.95;5.65;;;;;;;;;;5093374;28;20028;-82
2021/12/24 13:35:25;;;;;;;13.32;7.15;;;;;;;;;;5092032;28;20034;-84
2021/12/24 13:37:52;;;;;;;16.60;9.00;;;;;;;;;;5091632;28;20024;-84
2021/12/24 13:40:23;;;;;;;13.95;9.40;;;;;;;;;;5093274;28;20377;-81
2021/12/24 13:42:55;;;;;;;8.68;5.45;;;;;;;;;;5088525;28;20421;-81
2021/12/24 13:45:23;;;;;;;11.05;6.25;;;;;;;;;;5090372;28;20162;-83
2021/12/24 13:48:06;;;;;;;10.93;5.63;;;;;;;;;;5089368;28;20167;-83
2021/12/24 13:56:13;;;;;;;4.70;2.88;;;;;;;;;;5090619;28;20035;-81
2021/12/24 13:58:38;;;;;;;5.15;2.80;;;;;;;;;;5093195;28;20024;-83
2021/12/24 14:01:04;;;;;;;6.15;2.63;;;;;;;;;;5090189;28;20123;-79
2021/12/24 14:03:33;;;;;;;7.90;3.92;;;;;;;;;;5093126;28;20023;-81
2021/12/24 14:06:02;;;;;;;4.90;2.40;;;;;;;;;;5092218;28;20107;-82
2021/12/24 14:08:30;;;;;;;4.45;3.03;;;;;;;;;;5091916;28;20054;-82
2021/12/24 14:11:10;;;;;;;4.03;2.30;;;;;;;;;;5090731;28;20040;-80
2021/12/24 14:13:41;;;;;;;;;;;;;;;;;;5092616;28;20054;-82
2021/12/24 14:18:55;;;;;;;5.03;2.72;;;;;;;;;;5092237;28;20039;-82
2021/12/24 14:24:13;;;;;;;42.25;21.42;;;;;;;;;;5091821;28;20044;-82
2021/12/24 14:26:45;;;;;;;6.78;3.40;;;;;;;;;;5089583;28;20416;-81
2021/12/24 14:29:12;;;;;;;5.30;3.28;;;;;;;;;;5087919;28;20388;-80
2021/12/24 14:31:48;;;;;;;4.88;2.97;;;;;;;;;;5092713;28;20081;-80
2021/12/24 14:34:30;;;;;;;4.38;2.83;;;;;;;;;;5090813;28;20029;-82
2021/12/24 14:37:24;;;;;;;6.93;4.28;;;;;;;;;;5091035;28;20081;-81
2021/12/24 14:39:56;;;;;;;4.72;2.60;;;;;;;;;;5087893;28;20035;-80
2021/12/24 14:42:40;;;;;;;9.00;3.25;;;;;;;;;;5087808;28;20028;-81
2021/12/24 14:45:17;;;;;;;4.05;2.50;;;;;;;;;;5092668;28;20047;-80
2021/12/24 14:47:54;;;;;;;5.10;2.15;;;;;;;;;;5090531;28;20028;-81
2021/12/24 14:50:19;;;;;;;3.40;1.92;;;;;;;;;;5091891;28;20468;-82
2021/12/24 14:52:46;;;;;;;4.13;2.03;;;;;;;;;;5088842;28;20102;-80
2021/12/24 14:55:18;;;;;;;6.15;3.58;;;;;;;;;;5088824;28;20040;-82
2021/12/24 14:57:53;;;;;;;8.18;6.00;;;;;;;;;;5090413;28;20111;-79
2021/12/24 15:00:24;;;;;;;7.85;5.78;;;;;;;;;;5092019;28;20844;-80
2021/12/24 15:02:50;;;;;;;42.33;21.50;;;;;;;;;;5092159;28;20042;-84
2021/12/24 15:05:27;;;;;;;7.50;4.30;;;;;;;;;;5091051;28;20024;-81
2021/12/24 15:07:54;;;;;;;10.82;7.45;;;;;;;;;;5092209;28;20064;-82
2021/12/24 15:10:20;;;;;;;5.13;3.90;;;;;;;;;;5091089;28;20118;-81
2021/12/24 15:12:50;;;;;;;3.97;2.30;;;;;;;;;;5088488;28;20055;-82
2021/12/24 15:15:18;;;;;;;5.22;4.15;;;;;;;;;;5089418;28;20363;-81
2021/12/24 15:17:45;;;;;;;4.47;2.90;;;;;;;;;;5089975;28;20035;-81
2021/12/24 15:20:15;;;;;;;4.82;2.63;;;;;;;;;;5088743;28;20031;-81
2021/12/24 15:22:40;;;;;;;;;;;;;;;;;;5091643;28;20038;-80
2021/12/24 15:25:08;;;;;;;4.90;2.38;;;;;;;;;;5089312;28;19920;-81
2021/12/24 15:27:36;;;;;;;6.55;2.15;;;;;;;;;;5090071;28;20024;-84
2021/12/24 15:30:11;;;;;;;4.10;2.40;;;;;;;;;;5083788;28;20047;-81
2021/12/24 15:32:37;;;;;;;5.32;3.30;;;;;;;;;;5091042;28;20073;-80
2021/12/24 15:35:06;;;;;;;4.22;2.03;;;;;;;;;;5090153;28;20118;-81
2021/12/24 15:37:32;;;;;;;5.15;3.03;;;;;;;;;;5087127;28;20028;-79
2021/12/24 15:39:57;;;;;;;6.90;3.90;;;;;;;;;;5088278;28;20563;-78
2021/12/24 15:42:26;;;;;;;11.55;6.38;;;;;;;;;;5089424;28;20020;-81
2021/12/24 15:44:52;;;;;;;15.88;8.95;;;;;;;;;;5085031;28;20077;-79
2021/12/24 15:47:18;;;;;;;8.02;5.95;;;;;;;;;;5089384;28;20032;-78
2021/12/24 15:49:44;;;;;;;10.38;6.05;;;;;;;;;;5087052;28;20038;-78
2021/12/24 15:52:09;;;;;;;7.15;5.00;;;;;;;;;;5084758;28;20051;-79
2021/12/24 15:54:35;;;;;;;3.92;2.53;;;;;;;;;;5086217;28;20028;-79
2021/12/24 15:57:02;;;;;;;7.22;4.05;;;;;;;;;;5089456;28;20028;-79
2021/12/24 15:59:31;;;;;;;7.47;3.72;;;;;;;;;;5090559;28;20024;-78
2021/12/24 16:01:58;;;;;;;9.88;6.60;;;;;;;;;;5089707;28;20024;-79
2021/12/24 16:04:24;;;;;;;15.68;9.07;;;;;;;;;;5088509;28;20032;-78
2021/12/24 16:06:50;;;;;;;7.85;3.22;;;;;;;;;;5084923;28;20089;-79
2021/12/24 16:09:19;;;;;;;4.63;2.78;;;;;;;;;;5084195;28;20032;-79
2021/12/24 16:11:46;;;;;;;14.77;4.10;;;;;;;;;;5082406;28;20402;-79
2021/12/24 16:14:12;;;;;;;4.57;2.92;;;;;;;;;;5090031;28;20032;-78
2021/12/24 16:16:40;;;;;;;5.40;3.88;;;;;;;;;;5086867;28;20032;-80
2021/12/24 16:19:06;;;;;;;5.30;3.22;;;;;;;;;;5090909;28;20032;-81
2021/12/24 16:21:32;;;;;;;4.85;2.85;;;;;;;;;;5089369;28;20036;-80
2021/12/24 16:23:57;;;;;;;4.38;2.85;;;;;;;;;;5090078;28;20063;-81
2021/12/24 16:26:22;;;;;;;5.20;2.97;;;;;;;;;;5090887;28;20016;-82
2021/12/24 16:28:49;;;;;;;9.98;5.20;;;;;;;;;;5091255;28;20042;-80
2021/12/24 16:31:16;;;;;;;7.40;2.88;;;;;;;;;;5091565;28;20020;-81
2021/12/24 16:33:42;;;;;;;11.38;4.70;;;;;;;;;;5090749;28;20461;-81